KRNH/RNH METAR and TAF weather

Enter ICAO airport designator
Station Type Date Time Source
KRNH METAR 2019/06/18 14:35 UTC NOAA

KRNH 181435Z AUTO 28007KT 10SM CLR 19/11 A2999 RMK AO2 T01900106


Station Type Date Time Source
KRNH Decoded METAR 2019/06/18 14:35 UTC NOAA

New Richmond, New Richmond Municipal Airport, WI, United States (KRNH) 45-08-54N 092-32-17W
Jun 18, 2019 - 10:35 AM EDT / 2019.06.18 1435 UTC
Wind: from the W (280 degrees) at 8 MPH (7 KT):0
Visibility: 10 mile(s):0
Sky conditions: clear
Temperature: 66.2 F (19.0 C)
Dew Point: 51.1 F (10.6 C)
Relative Humidity: 58%
Pressure (altimeter): 29.99 in. Hg (1015 hPa)
ob: KRNH 181435Z AUTO 28007KT 10SM CLR 19/11 A2999 RMK AO2 T01900106
cycle: 14

Station Type Date Time Source
KRNH TAF 2019/06/18 12:45 UTC NOAA

TAF KRNH 181143Z 1812/1912 31002KT P6SM SCT030 BKN050
FM181600 30006KT P6SM BKN040
FM190000 35003KT P6SM BKN100
FM190800 03003KT P6SM SCT250

Example: see airport list